Time;durP1;ratioP1;P1;durP2;ratioP2;P2;SDS_P1;SDS_P2;PMS_P1;PMS_P2;Temp;Humidity;BMP_temperature;BMP_pressure;BME280_temperature;BME280_humidity;BME280_pressure;Samples;Min_cycle;Max_cycle;Signal;HPM_P1;HPM_P2
2022/12/18 00:01:19;;;;;;;120.93;42.75;;;;;;;;;;5092630;28;20035;-68
2022/12/18 00:03:45;;;;;;;110.88;41.97;;;;;;;;;;5079122;28;20040;-68
2022/12/18 00:06:13;;;;;;;109.43;40.42;;;;;;;;;;5093405;28;20358;-67
2022/12/18 00:08:39;;;;;;;113.25;43.83;;;;;;;;;;5076560;28;20051;-68
2022/12/18 00:11:06;;;;;;;99.25;40.40;;;;;;;;;;5095873;28;20043;-67
2022/12/18 00:13:32;;;;;;;108.93;43.55;;;;;;;;;;5097405;28;20046;-67
2022/12/18 00:16:06;;;;;;;114.47;40.83;;;;;;;;;;5096434;28;20106;-67
2022/12/18 00:18:32;;;;;;;110.18;40.60;;;;;;;;;;5094672;28;20084;-67
2022/12/18 00:21:00;;;;;;;105.20;43.03;;;;;;;;;;5093395;28;20467;-68
2022/12/18 00:23:27;;;;;;;119.57;44.10;;;;;;;;;;5100175;28;20086;-67
2022/12/18 00:25:53;;;;;;;111.28;42.75;;;;;;;;;;5100224;28;20040;-67
2022/12/18 00:28:19;;;;;;;113.90;43.08;;;;;;;;;;5097394;28;20155;-67
2022/12/18 00:30:45;;;;;;;105.07;38.92;;;;;;;;;;5097080;28;20127;-67
2022/12/18 00:33:11;;;;;;;109.53;43.38;;;;;;;;;;5077080;28;20055;-67
2022/12/18 00:35:37;;;;;;;115.35;39.65;;;;;;;;;;5098928;28;20042;-67
2022/12/18 00:38:06;;;;;;;112.03;42.35;;;;;;;;;;5075046;28;21028;-67
2022/12/18 00:40:32;;;;;;;102.00;39.03;;;;;;;;;;5080111;28;20046;-67
2022/12/18 00:42:58;;;;;;;115.68;41.50;;;;;;;;;;5099009;28;20518;-67
2022/12/18 00:45:26;;;;;;;106.60;39.65;;;;;;;;;;5098436;28;20383;-66
2022/12/18 00:47:53;;;;;;;111.90;40.95;;;;;;;;;;5098956;28;20044;-67
2022/12/18 00:50:19;;;;;;;107.32;40.60;;;;;;;;;;5098637;28;20043;-67
2022/12/18 00:52:45;;;;;;;112.20;41.67;;;;;;;;;;5079597;28;20478;-66
2022/12/18 00:55:11;;;;;;;115.50;40.33;;;;;;;;;;5097875;28;20052;-67
2022/12/18 00:57:38;;;;;;;107.70;40.78;;;;;;;;;;5099060;28;20582;-67
2022/12/18 01:00:05;;;;;;;114.75;42.13;;;;;;;;;;5098150;28;20056;-66
2022/12/18 01:02:31;;;;;;;107.57;41.05;;;;;;;;;;5077406;28;20059;-66
2022/12/18 01:04:58;;;;;;;111.25;41.10;;;;;;;;;;5095772;28;20395;-67
2022/12/18 01:07:24;;;;;;;107.75;39.95;;;;;;;;;;5074018;28;20044;-67
2022/12/18 01:09:50;;;;;;;121.20;42.28;;;;;;;;;;5087337;28;20050;-67
2022/12/18 01:12:16;;;;;;;108.38;42.28;;;;;;;;;;5063054;28;20048;-65
2022/12/18 01:14:42;;;;;;;105.68;40.40;;;;;;;;;;5083414;28;20140;-65
2022/12/18 01:17:08;;;;;;;109.05;39.92;;;;;;;;;;5094138;28;20061;-66
2022/12/18 01:19:34;;;;;;;97.03;38.13;;;;;;;;;;5084441;28;20051;-66
2022/12/18 01:22:01;;;;;;;110.55;40.47;;;;;;;;;;5082020;28;20136;-66
2022/12/18 01:24:27;;;;;;;102.93;36.45;;;;;;;;;;5103859;28;20044;-65
2022/12/18 01:26:53;;;;;;;99.20;37.67;;;;;;;;;;5098299;28;20039;-65
2022/12/18 01:29:19;;;;;;;100.90;37.88;;;;;;;;;;5102695;28;20501;-65
2022/12/18 01:31:45;;;;;;;97.60;36.70;;;;;;;;;;5099220;28;20130;-66
2022/12/18 01:34:11;;;;;;;95.53;38.00;;;;;;;;;;5081119;28;20056;-65
2022/12/18 01:36:38;;;;;;;103.55;37.83;;;;;;;;;;5102252;28;20035;-66
2022/12/18 01:39:06;;;;;;;91.68;36.78;;;;;;;;;;5094411;28;20048;-65
2022/12/18 01:44:38;;;;;;;93.07;38.45;;;;;;;;;;5099547;28;20051;-65
2022/12/18 01:47:04;;;;;;;95.03;36.13;;;;;;;;;;5082094;28;20052;-65
2022/12/18 01:49:30;;;;;;;99.28;35.40;;;;;;;;;;5083033;28;20055;-65
2022/12/18 01:51:57;;;;;;;101.05;38.20;;;;;;;;;;5101501;28;20052;-65
2022/12/18 01:54:23;;;;;;;100.57;38.88;;;;;;;;;;5099901;28;20051;-65
2022/12/18 01:56:49;;;;;;;98.55;36.05;;;;;;;;;;5081233;28;20514;-65
2022/12/18 01:59:15;;;;;;;94.72;35.15;;;;;;;;;;5098912;28;20498;-65
2022/12/18 02:01:42;;;;;;;95.50;37.88;;;;;;;;;;5097358;28;20049;-65
2022/12/18 02:04:19;;;;;;;96.72;37.47;;;;;;;;;;5100090;28;20491;-65
2022/12/18 02:06:46;;;;;;;94.53;36.70;;;;;;;;;;5101462;28;20043;-65
2022/12/18 02:09:12;;;;;;;92.90;37.97;;;;;;;;;;5101131;28;20384;-65
2022/12/18 02:11:47;;;;;;;107.95;39.10;;;;;;;;;;5102677;28;20039;-65
2022/12/18 02:14:19;;;;;;;106.15;35.03;;;;;;;;;;5101201;28;20044;-65
2022/12/18 02:16:50;;;;;;;91.28;35.85;;;;;;;;;;5100892;28;21994;-65
2022/12/18 02:19:21;;;;;;;99.03;35.08;;;;;;;;;;5099467;28;20100;-65
2022/12/18 02:21:47;;;;;;;97.80;35.53;;;;;;;;;;5100139;28;20027;-65
2022/12/18 02:24:18;;;;;;;101.47;37.55;;;;;;;;;;5100317;28;20544;-65
2022/12/18 02:26:48;;;;;;;100.25;37.30;;;;;;;;;;5094845;28;21686;-65
2022/12/18 02:29:17;;;;;;;96.88;34.67;;;;;;;;;;5080585;28;20093;-65
2022/12/18 02:31:45;;;;;;;87.60;34.05;;;;;;;;;;5102540;28;20055;-65
2022/12/18 02:34:12;;;;;;;97.43;34.13;;;;;;;;;;5100615;28;20099;-65
2022/12/18 02:36:41;;;;;;;97.82;33.97;;;;;;;;;;5100360;28;20032;-65
2022/12/18 02:39:08;;;;;;;96.47;35.42;;;;;;;;;;5099761;28;20127;-65
2022/12/18 02:41:36;;;;;;;115.70;38.85;;;;;;;;;;5080717;28;20044;-64
2022/12/18 02:44:07;;;;;;;101.07;34.58;;;;;;;;;;5101046;28;20047;-64
2022/12/18 02:46:35;;;;;;;105.90;36.53;;;;;;;;;;5082862;28;20054;-64
2022/12/18 02:49:07;;;;;;;101.45;35.80;;;;;;;;;;5083206;28;20661;-64
2022/12/18 02:51:39;;;;;;;102.00;34.80;;;;;;;;;;5097692;28;20436;-64
2022/12/18 02:54:09;;;;;;;112.75;38.08;;;;;;;;;;5101267;28;20403;-64
2022/12/18 02:56:39;;;;;;;107.03;36.13;;;;;;;;;;5099638;28;20040;-64
2022/12/18 02:59:08;;;;;;;106.00;36.47;;;;;;;;;;5082823;28;20051;-63
2022/12/18 03:01:46;;;;;;;99.53;35.67;;;;;;;;;;5104361;28;20036;-63
2022/12/18 03:04:24;;;;;;;96.65;33.15;;;;;;;;;;5104181;28;20042;-63
2022/12/18 03:06:53;;;;;;;95.43;33.15;;;;;;;;;;5098804;28;20142;-63
2022/12/18 03:09:21;;;;;;;92.50;33.28;;;;;;;;;;5081421;28;20103;-64
2022/12/18 03:14:38;;;;;;;83.18;32.40;;;;;;;;;;5101366;28;20044;-64
2022/12/18 03:17:06;;;;;;;86.93;32.55;;;;;;;;;;5098462;28;20514;-64
2022/12/18 03:19:34;;;;;;;88.43;31.83;;;;;;;;;;5100949;28;20122;-64
2022/12/18 03:22:02;;;;;;;94.68;34.65;;;;;;;;;;5100516;28;20168;-64
2022/12/18 03:24:31;;;;;;;89.38;32.58;;;;;;;;;;5101364;28;20046;-63
2022/12/18 03:27:00;;;;;;;94.60;35.08;;;;;;;;;;5100352;28;20043;-63
2022/12/18 03:29:28;;;;;;;89.60;33.30;;;;;;;;;;5100200;28;20104;-63
2022/12/18 03:31:57;;;;;;;87.93;33.47;;;;;;;;;;5101089;28;20047;-63
2022/12/18 03:34:27;;;;;;;91.85;33.10;;;;;;;;;;5093958;28;20044;-63
2022/12/18 03:36:53;;;;;;;97.70;33.10;;;;;;;;;;5099154;28;20036;-63
2022/12/18 03:39:20;;;;;;;102.70;37.70;;;;;;;;;;5078881;28;20047;-63
2022/12/18 03:41:57;;;;;;;102.05;34.83;;;;;;;;;;5079051;28;20051;-63
2022/12/18 03:44:29;;;;;;;107.43;34.00;;;;;;;;;;5096141;28;20140;-63
2022/12/18 03:47:04;;;;;;;101.32;33.78;;;;;;;;;;5080547;28;20052;-63
2022/12/18 03:49:30;;;;;;;94.70;35.35;;;;;;;;;;5083631;28;20036;-63
2022/12/18 03:52:00;;;;;;;101.05;35.90;;;;;;;;;;5080866;28;20088;-63
2022/12/18 03:54:27;;;;;;;89.85;33.75;;;;;;;;;;5082376;28;20138;-63
2022/12/18 03:56:58;;;;;;;95.70;35.17;;;;;;;;;;5098304;28;20044;-63
2022/12/18 03:59:25;;;;;;;91.72;34.30;;;;;;;;;;5099119;28;20067;-63
2022/12/18 04:01:53;;;;;;;105.78;38.95;;;;;;;;;;5081289;28;20039;-63
2022/12/18 04:04:19;;;;;;;100.43;34.53;;;;;;;;;;5098312;28;20041;-63
2022/12/18 04:06:47;;;;;;;97.32;35.22;;;;;;;;;;5100713;28;20044;-63
2022/12/18 04:09:13;;;;;;;87.68;35.22;;;;;;;;;;5100004;28;20046;-63
2022/12/18 04:11:41;;;;;;;95.13;35.95;;;;;;;;;;5096865;28;20036;-63
2022/12/18 04:14:07;;;;;;;95.00;35.05;;;;;;;;;;5099013;28;20039;-63
2022/12/18 04:16:33;;;;;;;87.43;33.08;;;;;;;;;;5100589;28;20058;-63
2022/12/18 04:18:59;;;;;;;88.80;34.65;;;;;;;;;;5085820;28;20571;-63
2022/12/18 04:21:25;;;;;;;84.50;33.33;;;;;;;;;;5102926;28;21523;-63
2022/12/18 04:23:51;;;;;;;94.47;36.80;;;;;;;;;;5101681;28;20104;-63
2022/12/18 04:26:17;;;;;;;94.63;36.70;;;;;;;;;;5103041;28;20062;-63
2022/12/18 04:28:43;;;;;;;89.85;33.92;;;;;;;;;;5104075;28;20035;-62
2022/12/18 04:31:10;;;;;;;101.80;35.17;;;;;;;;;;5103303;28;20355;-63
2022/12/18 04:33:36;;;;;;;102.43;37.10;;;;;;;;;;5082564;28;20135;-62
2022/12/18 04:36:02;;;;;;;92.75;35.58;;;;;;;;;;5103761;28;20337;-62
2022/12/18 04:38:28;;;;;;;102.10;36.03;;;;;;;;;;5099798;28;20097;-62
2022/12/18 04:40:54;;;;;;;93.18;36.05;;;;;;;;;;5099041;28;20063;-62
2022/12/18 04:43:21;;;;;;;96.93;36.53;;;;;;;;;;5102682;28;20056;-62
2022/12/18 04:45:47;;;;;;;85.88;33.22;;;;;;;;;;5103174;28;20526;-61
2022/12/18 04:48:13;;;;;;;96.43;36.05;;;;;;;;;;5084342;28;20098;-62
2022/12/18 04:50:39;;;;;;;87.30;34.08;;;;;;;;;;5084563;28;20047;-62
2022/12/18 04:53:05;;;;;;;93.10;35.00;;;;;;;;;;5101091;28;20043;-61
2022/12/18 04:55:31;;;;;;;89.40;35.65;;;;;;;;;;5100186;28;20047;-61
2022/12/18 04:57:57;;;;;;;95.15;34.15;;;;;;;;;;5107304;28;20119;-62
2022/12/18 05:00:24;;;;;;;93.55;34.67;;;;;;;;;;5103870;28;20044;-62
2022/12/18 05:02:50;;;;;;;94.93;35.67;;;;;;;;;;5101601;28;20043;-62
2022/12/18 05:05:16;;;;;;;90.00;35.10;;;;;;;;;;5101819;28;20471;-62
2022/12/18 05:07:42;;;;;;;78.57;31.15;;;;;;;;;;5100616;28;20048;-62
2022/12/18 05:10:09;;;;;;;91.13;33.72;;;;;;;;;;5101182;28;20043;-62
2022/12/18 05:12:57;;;;;;;88.10;34.55;;;;;;;;;;5104014;28;20069;-62
2022/12/18 05:15:21;;;;;;;94.50;34.60;;;;;;;;;;5102054;28;20138;-62
2022/12/18 05:17:47;;;;;;;84.75;33.40;;;;;;;;;;5102001;28;20070;-62
2022/12/18 05:20:13;;;;;;;78.10;31.48;;;;;;;;;;5099573;28;20126;-62
2022/12/18 05:22:39;;;;;;;73.13;30.25;;;;;;;;;;5102797;28;20130;-62
2022/12/18 05:25:06;;;;;;;75.15;31.05;;;;;;;;;;5102653;28;20091;-62
2022/12/18 05:27:32;;;;;;;83.88;33.42;;;;;;;;;;5102596;28;20048;-62
2022/12/18 05:29:58;;;;;;;77.35;30.23;;;;;;;;;;5099587;28;20075;-62
2022/12/18 05:32:24;;;;;;;69.80;28.40;;;;;;;;;;5104865;28;20084;-61
2022/12/18 05:34:50;;;;;;;74.38;28.38;;;;;;;;;;5095587;28;20058;-62
2022/12/18 05:37:16;;;;;;;67.45;27.67;;;;;;;;;;5101050;28;20044;-62
2022/12/18 05:39:43;;;;;;;74.25;29.50;;;;;;;;;;5103224;28;20050;-62
2022/12/18 05:42:09;;;;;;;74.30;29.63;;;;;;;;;;5098875;28;20067;-61
2022/12/18 05:44:35;;;;;;;69.10;27.02;;;;;;;;;;5100755;28;20035;-61
2022/12/18 05:47:01;;;;;;;64.97;27.45;;;;;;;;;;5099806;28;20092;-61
2022/12/18 05:49:28;;;;;;;59.53;24.70;;;;;;;;;;5103552;28;20035;-62
2022/12/18 05:51:54;;;;;;;67.55;26.70;;;;;;;;;;5102530;28;20116;-62
2022/12/18 05:54:20;;;;;;;59.55;25.35;;;;;;;;;;5101439;28;20159;-62
2022/12/18 05:56:46;;;;;;;62.80;27.77;;;;;;;;;;5101251;28;20084;-61
2022/12/18 05:59:12;;;;;;;66.85;27.58;;;;;;;;;;5100982;28;20039;-62
2022/12/18 06:01:38;;;;;;;67.28;29.40;;;;;;;;;;5080916;28;20054;-62
2022/12/18 06:04:05;;;;;;;69.95;27.73;;;;;;;;;;5100173;28;20453;-62
2022/12/18 06:06:31;;;;;;;66.30;27.45;;;;;;;;;;5082280;28;20058;-62
2022/12/18 06:08:57;;;;;;;65.97;25.48;;;;;;;;;;5100123;28;20150;-62
2022/12/18 06:11:24;;;;;;;63.20;25.02;;;;;;;;;;5099834;28;20050;-62
2022/12/18 06:13:52;;;;;;;67.75;25.50;;;;;;;;;;5102318;28;20043;-62
2022/12/18 06:16:18;;;;;;;54.35;24.70;;;;;;;;;;5098443;28;20104;-62
2022/12/18 06:18:44;;;;;;;63.72;27.02;;;;;;;;;;5100548;28;20039;-62
2022/12/18 06:21:10;;;;;;;72.18;27.25;;;;;;;;;;5100619;28;20039;-62
2022/12/18 06:23:37;;;;;;;63.15;25.90;;;;;;;;;;5101229;28;20043;-62
2022/12/18 06:26:05;;;;;;;65.78;23.85;;;;;;;;;;5100838;28;20399;-62
2022/12/18 06:28:31;;;;;;;61.75;25.20;;;;;;;;;;5102416;28;20127;-62
2022/12/18 06:30:57;;;;;;;56.50;23.38;;;;;;;;;;5098186;28;20039;-62
2022/12/18 06:33:26;;;;;;;62.60;23.30;;;;;;;;;;5099838;28;20039;-62
2022/12/18 06:35:52;;;;;;;54.45;23.13;;;;;;;;;;5097812;28;20471;-62
2022/12/18 06:38:18;;;;;;;61.25;26.77;;;;;;;;;;5098303;28;20185;-62
2022/12/18 06:40:44;;;;;;;60.15;23.10;;;;;;;;;;5096385;28;20038;-62
2022/12/18 06:43:10;;;;;;;55.25;23.90;;;;;;;;;;5099754;28;20060;-62
2022/12/18 06:45:37;;;;;;;59.42;23.73;;;;;;;;;;5099504;28;20047;-62
2022/12/18 06:48:03;;;;;;;57.47;23.45;;;;;;;;;;5102503;28;20055;-62
2022/12/18 06:50:29;;;;;;;53.78;22.90;;;;;;;;;;5100140;28;20181;-62
2022/12/18 06:52:55;;;;;;;61.83;23.67;;;;;;;;;;5099230;28;20039;-62
2022/12/18 06:55:21;;;;;;;57.38;22.33;;;;;;;;;;5098449;28;20407;-62
2022/12/18 06:57:47;;;;;;;52.17;22.52;;;;;;;;;;5099921;28;20062;-62
2022/12/18 07:00:14;;;;;;;51.58;22.77;;;;;;;;;;5095916;28;20044;-61
2022/12/18 07:02:40;;;;;;;53.60;21.90;;;;;;;;;;5097124;28;20039;-61
2022/12/18 07:05:06;;;;;;;48.78;21.88;;;;;;;;;;5097665;28;20115;-61
2022/12/18 07:07:34;;;;;;;51.88;20.77;;;;;;;;;;5102302;28;20055;-61
2022/12/18 07:10:00;;;;;;;55.00;23.60;;;;;;;;;;5084668;28;20039;-61
2022/12/18 07:12:27;;;;;;;51.78;20.90;;;;;;;;;;5098190;28;20046;-62
2022/12/18 07:14:53;;;;;;;47.53;19.63;;;;;;;;;;5084612;28;20097;-62
2022/12/18 07:17:20;;;;;;;50.58;20.63;;;;;;;;;;5086633;28;20079;-62
2022/12/18 07:19:46;;;;;;;44.22;19.50;;;;;;;;;;5105625;28;20058;-62
2022/12/18 07:22:12;;;;;;;46.80;21.08;;;;;;;;;;5105819;28;20450;-61
2022/12/18 07:24:38;;;;;;;47.70;21.92;;;;;;;;;;5090130;28;20067;-62
2022/12/18 07:27:04;;;;;;;54.65;22.52;;;;;;;;;;5086775;28;20044;-62
2022/12/18 07:29:30;;;;;;;49.53;20.02;;;;;;;;;;5104049;28;20048;-61
2022/12/18 07:31:56;;;;;;;47.15;18.98;;;;;;;;;;5085349;28;20605;-62
2022/12/18 07:34:23;;;;;;;43.72;19.13;;;;;;;;;;5104797;28;20402;-62
2022/12/18 07:36:49;;;;;;;52.65;20.15;;;;;;;;;;5086235;28;20118;-61
2022/12/18 07:39:15;;;;;;;45.13;20.20;;;;;;;;;;5106172;28;20031;-61
2022/12/18 07:41:45;;;;;;;41.70;18.95;;;;;;;;;;5105582;28;20039;-61
2022/12/18 07:44:12;;;;;;;43.05;18.05;;;;;;;;;;5104845;28;20043;-61
2022/12/18 07:46:38;;;;;;;46.22;17.52;;;;;;;;;;5104872;28;20054;-62
2022/12/18 07:49:04;;;;;;;45.90;19.65;;;;;;;;;;5105345;28;20080;-62
2022/12/18 07:51:30;;;;;;;37.15;16.90;;;;;;;;;;5105599;28;20422;-61
2022/12/18 07:53:57;;;;;;;53.78;18.40;;;;;;;;;;5104079;28;20031;-61
2022/12/18 07:56:23;;;;;;;42.15;19.02;;;;;;;;;;5105938;28;20063;-61
2022/12/18 07:58:49;;;;;;;42.75;19.10;;;;;;;;;;5104958;28;20491;-61
2022/12/18 08:01:16;;;;;;;43.88;18.30;;;;;;;;;;5104893;28;20040;-62
2022/12/18 08:03:42;;;;;;;43.42;18.45;;;;;;;;;;5105316;28;20417;-61
2022/12/18 08:06:10;;;;;;;42.03;17.23;;;;;;;;;;5104331;28;20392;-61
2022/12/18 08:08:36;;;;;;;45.53;18.42;;;;;;;;;;5104389;28;20479;-62
2022/12/18 08:11:03;;;;;;;41.20;16.95;;;;;;;;;;5103925;28;20071;-63
2022/12/18 08:13:29;;;;;;;38.88;18.13;;;;;;;;;;5104880;28;20109;-62
2022/12/18 08:15:56;;;;;;;40.25;15.80;;;;;;;;;;5107101;28;20032;-63
2022/12/18 08:18:22;;;;;;;45.83;18.73;;;;;;;;;;5085824;28;20040;-64
2022/12/18 08:20:49;;;;;;;38.50;17.10;;;;;;;;;;5105146;28;20050;-63
2022/12/18 08:23:15;;;;;;;41.67;18.00;;;;;;;;;;5105323;28;20484;-62
2022/12/18 08:25:41;;;;;;;43.35;19.83;;;;;;;;;;5086127;28;20399;-62
2022/12/18 08:28:07;;;;;;;38.45;15.48;;;;;;;;;;5106529;28;20035;-62
2022/12/18 08:30:33;;;;;;;40.42;16.25;;;;;;;;;;5106641;28;20077;-61
2022/12/18 08:32:59;;;;;;;38.17;16.80;;;;;;;;;;5105209;28;20063;-61
2022/12/18 08:35:26;;;;;;;45.78;18.88;;;;;;;;;;5102508;28;20043;-61
2022/12/18 08:37:52;;;;;;;36.70;17.27;;;;;;;;;;5103292;28;20036;-61
2022/12/18 08:40:19;;;;;;;37.70;16.55;;;;;;;;;;5107290;28;20128;-61
2022/12/18 08:45:29;;;;;;;36.47;16.83;;;;;;;;;;5086554;28;20043;-61
2022/12/18 08:47:56;;;;;;;40.13;18.83;;;;;;;;;;5105026;28;20403;-61
2022/12/18 08:50:22;;;;;;;39.75;17.48;;;;;;;;;;5106800;28;20031;-61
2022/12/18 08:52:48;;;;;;;41.60;16.98;;;;;;;;;;5105823;28;20035;-62
2022/12/18 08:55:14;;;;;;;41.08;18.17;;;;;;;;;;5104601;28;20058;-61
2022/12/18 08:57:40;;;;;;;41.13;18.13;;;;;;;;;;5107218;28;20360;-61
2022/12/18 09:00:07;;;;;;;31.67;16.38;;;;;;;;;;5083609;28;20483;-62
2022/12/18 09:02:33;;;;;;;37.88;17.23;;;;;;;;;;5102870;28;20066;-63
2022/12/18 09:04:59;;;;;;;37.45;17.02;;;;;;;;;;5105048;28;20038;-63
2022/12/18 09:07:26;;;;;;;35.70;16.48;;;;;;;;;;5086448;28;20479;-62
2022/12/18 09:09:52;;;;;;;37.40;16.77;;;;;;;;;;5106614;28;20138;-64
2022/12/18 09:12:18;;;;;;;38.35;16.02;;;;;;;;;;5107053;28;20031;-64
2022/12/18 09:14:44;;;;;;;33.40;16.98;;;;;;;;;;5087117;28;20079;-63
2022/12/18 09:17:10;;;;;;;37.85;16.52;;;;;;;;;;5089075;28;20482;-64
2022/12/18 09:19:36;;;;;;;41.97;16.92;;;;;;;;;;5106725;28;20105;-64
2022/12/18 09:22:03;;;;;;;32.72;15.50;;;;;;;;;;5107096;28;20084;-64
2022/12/18 09:24:29;;;;;;;32.92;15.93;;;;;;;;;;5106985;28;20490;-64
2022/12/18 09:26:55;;;;;;;31.23;15.32;;;;;;;;;;5107067;28;20040;-64
2022/12/18 09:29:21;;;;;;;29.15;14.60;;;;;;;;;;5087990;28;20047;-64
2022/12/18 09:31:49;;;;;;;33.88;15.40;;;;;;;;;;5087947;28;21633;-64
2022/12/18 09:34:16;;;;;;;33.78;13.93;;;;;;;;;;5106011;28;20050;-64
2022/12/18 09:36:42;;;;;;;25.30;13.70;;;;;;;;;;5087627;28;20043;-64
2022/12/18 09:39:08;;;;;;;24.42;12.75;;;;;;;;;;5107396;28;20218;-64
2022/12/18 09:41:44;;;;;;;25.35;13.63;;;;;;;;;;5107419;28;20548;-64
2022/12/18 09:44:25;;;;;;;27.30;13.35;;;;;;;;;;5078217;28;20087;-63
2022/12/18 09:47:03;;;;;;;27.23;12.80;;;;;;;;;;5103841;28;20154;-64
2022/12/18 09:49:31;;;;;;;28.55;13.63;;;;;;;;;;5100355;28;20181;-64
2022/12/18 09:52:02;;;;;;;25.67;12.73;;;;;;;;;;5107968;28;20528;-63
2022/12/18 09:54:46;;;;;;;23.83;12.43;;;;;;;;;;5106869;28;20343;-64
2022/12/18 09:57:12;;;;;;;;;;;;;;;;;;5108726;28;20566;-64
2022/12/18 09:59:39;;;;;;;27.23;13.88;;;;;;;;;;5107108;28;19967;-64
2022/12/18 10:02:14;;;;;;;26.40;13.70;;;;;;;;;;5104687;28;20076;-64
2022/12/18 10:04:40;;;;;;;26.13;13.27;;;;;;;;;;5083026;28;20048;-64
2022/12/18 10:07:13;;;;;;;25.27;12.60;;;;;;;;;;5106708;28;20038;-64
2022/12/18 10:09:53;;;;;;;25.35;11.27;;;;;;;;;;5104821;28;20056;-64
2022/12/18 10:12:24;;;;;;;23.55;11.73;;;;;;;;;;5106493;28;20047;-64
2022/12/18 10:14:51;;;;;;;20.60;9.95;;;;;;;;;;5104912;28;20084;-64
2022/12/18 10:17:23;;;;;;;24.77;11.05;;;;;;;;;;5105109;28;20133;-64
2022/12/18 10:19:59;;;;;;;20.42;10.88;;;;;;;;;;5106411;28;20047;-64
2022/12/18 10:22:29;;;;;;;22.10;10.30;;;;;;;;;;5106696;28;20040;-64
2022/12/18 10:24:59;;;;;;;22.25;10.40;;;;;;;;;;5104296;28;20525;-64
2022/12/18 10:27:26;;;;;;;20.70;9.60;;;;;;;;;;5088234;28;20047;-64
2022/12/18 10:29:52;;;;;;;24.33;11.13;;;;;;;;;;5106097;28;20040;-64
2022/12/18 10:32:20;;;;;;;19.13;10.38;;;;;;;;;;5105274;28;20514;-64
2022/12/18 10:34:47;;;;;;;20.55;10.57;;;;;;;;;;5105744;28;20490;-64
2022/12/18 10:37:17;;;;;;;23.38;11.60;;;;;;;;;;5084793;28;20043;-64
2022/12/18 10:39:43;;;;;;;22.20;10.35;;;;;;;;;;5105466;28;20993;-64
2022/12/18 10:42:12;;;;;;;25.60;10.95;;;;;;;;;;5105880;28;20484;-64
2022/12/18 10:44:38;;;;;;;20.13;11.07;;;;;;;;;;5103117;28;20047;-64
2022/12/18 10:47:07;;;;;;;25.70;11.23;;;;;;;;;;5104694;28;20119;-65
2022/12/18 10:49:34;;;;;;;21.45;11.25;;;;;;;;;;5105677;28;20066;-65
2022/12/18 10:52:08;;;;;;;21.38;10.50;;;;;;;;;;5105089;28;20123;-65
2022/12/18 10:54:35;;;;;;;21.20;10.30;;;;;;;;;;5105090;28;20035;-65
2022/12/18 10:57:17;;;;;;;22.08;10.35;;;;;;;;;;5088280;28;20035;-64
2022/12/18 10:59:54;;;;;;;17.70;10.35;;;;;;;;;;5086023;28;20035;-65
2022/12/18 11:02:35;;;;;;;22.85;11.65;;;;;;;;;;5104529;28;20394;-65
2022/12/18 11:05:02;;;;;;;21.50;11.02;;;;;;;;;;5103737;28;20655;-65
2022/12/18 11:07:47;;;;;;;22.85;10.40;;;;;;;;;;5103797;28;20499;-65
2022/12/18 11:10:17;;;;;;;20.77;10.52;;;;;;;;;;5104485;28;20045;-65
2022/12/18 11:12:43;;;;;;;24.65;11.77;;;;;;;;;;5085292;28;20502;-65
2022/12/18 11:15:17;;;;;;;20.80;11.05;;;;;;;;;;5103387;28;20051;-65
2022/12/18 11:17:43;;;;;;;;;;;;;;;;;;5103809;28;20044;-65
2022/12/18 11:20:22;;;;;;;23.23;11.02;;;;;;;;;;5105252;28;19919;-65
2022/12/18 11:22:57;;;;;;;20.90;11.23;;;;;;;;;;5103262;28;20058;-65
2022/12/18 11:25:23;;;;;;;23.13;11.32;;;;;;;;;;5086915;28;20043;-66
2022/12/18 11:27:51;;;;;;;20.90;10.75;;;;;;;;;;5082307;28;20079;-66
2022/12/18 11:30:24;;;;;;;22.33;10.05;;;;;;;;;;5105485;28;20119;-65
2022/12/18 11:32:54;;;;;;;19.03;9.73;;;;;;;;;;5103408;28;20508;-65
2022/12/18 11:35:33;;;;;;;19.90;10.65;;;;;;;;;;5104222;28;20044;-66
2022/12/18 11:38:03;;;;;;;20.38;9.73;;;;;;;;;;5104901;28;20415;-66
2022/12/18 11:40:35;;;;;;;18.90;10.00;;;;;;;;;;5104896;28;20059;-65
2022/12/18 11:43:11;;;;;;;20.17;10.57;;;;;;;;;;5103493;28;20491;-65
2022/12/18 11:45:43;;;;;;;19.85;10.05;;;;;;;;;;5085825;28;20054;-65
2022/12/18 11:48:18;;;;;;;18.63;9.73;;;;;;;;;;5103884;28;20126;-67
2022/12/18 11:50:50;;;;;;;18.48;9.45;;;;;;;;;;5103590;28;20039;-65
2022/12/18 11:53:16;;;;;;;17.98;10.15;;;;;;;;;;5085705;28;20092;-65
2022/12/18 11:55:54;;;;;;;18.25;9.38;;;;;;;;;;5085387;28;20048;-65
2022/12/18 11:58:28;;;;;;;18.98;11.15;;;;;;;;;;5101559;28;20505;-65
2022/12/18 12:01:11;;;;;;;17.92;9.70;;;;;;;;;;5103567;28;20048;-65
2022/12/18 12:03:42;;;;;;;18.85;9.68;;;;;;;;;;5080971;28;20040;-65
2022/12/18 12:06:14;;;;;;;16.17;8.38;;;;;;;;;;5082297;28;20460;-65
2022/12/18 12:08:40;;;;;;;16.70;7.97;;;;;;;;;;5085970;28;20048;-65
2022/12/18 12:11:22;;;;;;;17.05;8.70;;;;;;;;;;5103611;28;20044;-65
2022/12/18 12:13:57;;;;;;;18.92;8.98;;;;;;;;;;5103106;28;20043;-65
2022/12/18 12:16:37;;;;;;;14.65;7.57;;;;;;;;;;5106073;28;20483;-65
2022/12/18 12:19:03;;;;;;;17.85;8.48;;;;;;;;;;5088093;28;20043;-65
2022/12/18 12:21:35;;;;;;;16.10;9.07;;;;;;;;;;5105574;28;20063;-65
2022/12/18 12:24:09;;;;;;;15.48;8.93;;;;;;;;;;5102920;28;20039;-65
2022/12/18 12:26:46;;;;;;;14.30;7.25;;;;;;;;;;5101683;28;20046;-65
2022/12/18 12:29:24;;;;;;;18.38;8.65;;;;;;;;;;5083043;28;20424;-65
2022/12/18 12:32:03;;;;;;;12.77;7.43;;;;;;;;;;5098316;28;20142;-65
2022/12/18 12:34:33;;;;;;;14.02;7.25;;;;;;;;;;5080540;28;20054;-65
2022/12/18 12:37:07;;;;;;;14.85;8.43;;;;;;;;;;5099241;28;20035;-75
2022/12/18 12:39:37;;;;;;;15.00;8.13;;;;;;;;;;5112510;28;20093;-66
2022/12/18 12:44:54;;;;;;;13.90;7.68;;;;;;;;;;5109366;28;20403;-66
2022/12/18 12:47:26;;;;;;;14.07;7.13;;;;;;;;;;5109600;28;20546;-65
2022/12/18 12:49:52;;;;;;;11.68;5.95;;;;;;;;;;5112579;28;20371;-64
2022/12/18 12:52:26;;;;;;;12.80;7.70;;;;;;;;;;5111601;28;20043;-65
2022/12/18 12:54:53;;;;;;;11.10;6.05;;;;;;;;;;5111741;28;20115;-65
2022/12/18 12:57:22;;;;;;;12.75;6.20;;;;;;;;;;5111092;28;20047;-65
2022/12/18 13:00:03;;;;;;;13.52;6.50;;;;;;;;;;5110685;28;20044;-65
2022/12/18 13:02:33;;;;;;;13.05;6.57;;;;;;;;;;5111559;28;20055;-65
2022/12/18 13:05:04;;;;;;;11.55;5.40;;;;;;;;;;5111102;28;20067;-64
2022/12/18 13:07:34;;;;;;;10.43;5.63;;;;;;;;;;5109460;28;20043;-65
2022/12/18 13:10:16;;;;;;;13.35;7.03;;;;;;;;;;5090969;28;20043;-65
2022/12/18 13:12:59;;;;;;;11.85;5.85;;;;;;;;;;5093362;28;20114;-65
2022/12/18 13:15:35;;;;;;;15.63;6.85;;;;;;;;;;5111475;28;20051;-65
2022/12/18 13:18:09;;;;;;;11.00;5.50;;;;;;;;;;5110886;28;20579;-65
2022/12/18 13:20:36;;;;;;;9.18;5.00;;;;;;;;;;5092507;28;20467;-65
2022/12/18 13:23:19;;;;;;;11.20;5.93;;;;;;;;;;5093153;28;20047;-65
2022/12/18 13:25:46;;;;;;;11.07;5.83;;;;;;;;;;5110783;28;20054;-65
2022/12/18 13:28:14;;;;;;;11.05;6.10;;;;;;;;;;5110557;28;20301;-65
2022/12/18 13:30:42;;;;;;;12.48;5.97;;;;;;;;;;5091999;28;20031;-65
2022/12/18 13:33:15;;;;;;;12.15;6.07;;;;;;;;;;5092731;28;20043;-65
2022/12/18 13:35:42;;;;;;;9.85;5.72;;;;;;;;;;5109508;28;20122;-65
2022/12/18 13:38:23;;;;;;;10.38;5.43;;;;;;;;;;5110641;28;20044;-65
2022/12/18 13:40:49;;;;;;;10.93;6.05;;;;;;;;;;5107977;28;20054;-65
2022/12/18 13:43:19;;;;;;;12.65;5.45;;;;;;;;;;5087631;28;20399;-65
2022/12/18 13:45:48;;;;;;;10.55;5.25;;;;;;;;;;5102164;28;20040;-65
2022/12/18 13:48:16;;;;;;;8.30;5.30;;;;;;;;;;5102522;28;20040;-65
2022/12/18 13:50:42;;;;;;;10.50;4.97;;;;;;;;;;5090034;28;20188;-64
2022/12/18 13:53:15;;;;;;;12.63;6.13;;;;;;;;;;5110182;28;20047;-64
2022/12/18 13:55:45;;;;;;;10.07;4.50;;;;;;;;;;5107526;28;20133;-64
2022/12/18 13:58:12;;;;;;;9.23;5.55;;;;;;;;;;5110752;28;20039;-65
2022/12/18 14:00:43;;;;;;;11.15;5.82;;;;;;;;;;5111283;28;20039;-64
2022/12/18 14:03:18;;;;;;;10.75;5.60;;;;;;;;;;5090762;28;20142;-64
2022/12/18 14:05:46;;;;;;;9.80;5.50;;;;;;;;;;5110152;28;20058;-64
2022/12/18 14:08:14;;;;;;;13.05;5.50;;;;;;;;;;5110270;28;20110;-64
2022/12/18 14:10:41;;;;;;;12.32;5.88;;;;;;;;;;5091503;28;20475;-64
2022/12/18 14:13:09;;;;;;;10.52;5.60;;;;;;;;;;5092868;28;20117;-64
2022/12/18 14:15:43;;;;;;;9.43;4.68;;;;;;;;;;5109991;28;20036;-64
2022/12/18 14:18:09;;;;;;;15.27;6.13;;;;;;;;;;5109054;28;20055;-64
2022/12/18 14:20:36;;;;;;;9.60;5.20;;;;;;;;;;5110287;28;20046;-64
2022/12/18 14:23:02;;;;;;;9.75;5.13;;;;;;;;;;5105936;28;20115;-64
2022/12/18 14:25:29;;;;;;;10.77;5.20;;;;;;;;;;5105332;28;20052;-64
2022/12/18 14:28:09;;;;;;;9.02;5.03;;;;;;;;;;5086530;28;21245;-64
2022/12/18 14:30:36;;;;;;;8.27;4.82;;;;;;;;;;5103635;28;20543;-64
2022/12/18 14:33:02;;;;;;;14.70;5.75;;;;;;;;;;5103636;28;20035;-65
2022/12/18 14:35:28;;;;;;;11.82;5.38;;;;;;;;;;5084435;28;20044;-64
2022/12/18 14:38:07;;;;;;;12.60;6.10;;;;;;;;;;5100293;28;20761;-64